sensor_id;sensor_type;location;lat;lon;timestamp;P1;durP1;ratioP1;P2;durP2;ratioP2
2656;SDS011;1338;48.176;11.792;2023-07-29T00:00:36;3.83;;;3.53;;
2656;SDS011;1338;48.176;11.792;2023-07-29T00:03:05;3.37;;;3.07;;
2656;SDS011;1338;48.176;11.792;2023-07-29T00:05:34;2.83;;;2.63;;
2656;SDS011;1338;48.176;11.792;2023-07-29T00:08:03;3.50;;;3.17;;
2656;SDS011;1338;48.176;11.792;2023-07-29T00:10:32;3.33;;;3.03;;
2656;SDS011;1338;48.176;11.792;2023-07-29T00:13:06;3.60;;;3.30;;
2656;SDS011;1338;48.176;11.792;2023-07-29T00:15:36;3.70;;;3.40;;
2656;SDS011;1338;48.176;11.792;2023-07-29T00:18:04;3.83;;;3.53;;
2656;SDS011;1338;48.176;11.792;2023-07-29T00:20:32;3.90;;;3.60;;
2656;SDS011;1338;48.176;11.792;2023-07-29T00:23:01;3.07;;;2.87;;
2656;SDS011;1338;48.176;11.792;2023-07-29T00:25:30;3.40;;;3.10;;
2656;SDS011;1338;48.176;11.792;2023-07-29T00:27:59;3.67;;;3.17;;
2656;SDS011;1338;48.176;11.792;2023-07-29T00:30:30;3.40;;;3.10;;
2656;SDS011;1338;48.176;11.792;2023-07-29T00:33:00;3.70;;;3.30;;
2656;SDS011;1338;48.176;11.792;2023-07-29T00:35:30;3.73;;;3.27;;
2656;SDS011;1338;48.176;11.792;2023-07-29T00:37:59;3.40;;;3.10;;
2656;SDS011;1338;48.176;11.792;2023-07-29T00:40:28;3.20;;;2.90;;
2656;SDS011;1338;48.176;11.792;2023-07-29T00:42:57;3.80;;;3.50;;
2656;SDS011;1338;48.176;11.792;2023-07-29T00:45:26;3.33;;;3.03;;
2656;SDS011;1338;48.176;11.792;2023-07-29T00:47:59;4.20;;;3.90;;
2656;SDS011;1338;48.176;11.792;2023-07-29T00:50:30;2.90;;;2.70;;
2656;SDS011;1338;48.176;11.792;2023-07-29T00:53:00;3.50;;;3.20;;
2656;SDS011;1338;48.176;11.792;2023-07-29T00:55:28;3.53;;;3.33;;
2656;SDS011;1338;48.176;11.792;2023-07-29T00:57:57;3.40;;;3.10;;
2656;SDS011;1338;48.176;11.792;2023-07-29T01:00:26;3.57;;;3.37;;
2656;SDS011;1338;48.176;11.792;2023-07-29T01:02:56;3.17;;;2.87;;
2656;SDS011;1338;48.176;11.792;2023-07-29T01:05:27;3.80;;;3.50;;
2656;SDS011;1338;48.176;11.792;2023-07-29T01:08:03;3.70;;;3.40;;
2656;SDS011;1338;48.176;11.792;2023-07-29T01:10:43;3.53;;;3.17;;
2656;SDS011;1338;48.176;11.792;2023-07-29T01:13:20;3.60;;;3.30;;
2656;SDS011;1338;48.176;11.792;2023-07-29T01:15:58;3.37;;;3.07;;
2656;SDS011;1338;48.176;11.792;2023-07-29T01:18:31;3.27;;;2.97;;
2656;SDS011;1338;48.176;11.792;2023-07-29T01:21:04;3.40;;;3.17;;
2656;SDS011;1338;48.176;11.792;2023-07-29T01:23:36;3.50;;;3.20;;
2656;SDS011;1338;48.176;11.792;2023-07-29T01:26:04;3.53;;;3.23;;
2656;SDS011;1338;48.176;11.792;2023-07-29T01:28:33;3.73;;;3.37;;
2656;SDS011;1338;48.176;11.792;2023-07-29T01:31:04;4.03;;;3.67;;
2656;SDS011;1338;48.176;11.792;2023-07-29T01:33:39;3.40;;;3.10;;
2656;SDS011;1338;48.176;11.792;2023-07-29T01:36:13;3.20;;;2.90;;
2656;SDS011;1338;48.176;11.792;2023-07-29T01:38:48;3.50;;;3.20;;
2656;SDS011;1338;48.176;11.792;2023-07-29T01:41:19;4.10;;;3.33;;
2656;SDS011;1338;48.176;11.792;2023-07-29T01:43:49;3.43;;;3.00;;
2656;SDS011;1338;48.176;11.792;2023-07-29T01:46:18;4.40;;;2.90;;
2656;SDS011;1338;48.176;11.792;2023-07-29T01:48:47;3.60;;;3.30;;
2656;SDS011;1338;48.176;11.792;2023-07-29T01:51:16;3.67;;;3.03;;
2656;SDS011;1338;48.176;11.792;2023-07-29T01:53:44;2.80;;;2.60;;
2656;SDS011;1338;48.176;11.792;2023-07-29T01:56:15;3.60;;;3.30;;
2656;SDS011;1338;48.176;11.792;2023-07-29T01:58:51;4.50;;;3.50;;
2656;SDS011;1338;48.176;11.792;2023-07-29T02:01:20;3.30;;;3.00;;
2656;SDS011;1338;48.176;11.792;2023-07-29T02:03:49;3.50;;;3.20;;
2656;SDS011;1338;48.176;11.792;2023-07-29T02:06:23;3.17;;;2.87;;
2656;SDS011;1338;48.176;11.792;2023-07-29T02:08:52;3.33;;;3.03;;
2656;SDS011;1338;48.176;11.792;2023-07-29T02:11:23;3.20;;;2.90;;
2656;SDS011;1338;48.176;11.792;2023-07-29T02:13:55;3.30;;;3.10;;
2656;SDS011;1338;48.176;11.792;2023-07-29T02:16:28;4.57;;;3.30;;
2656;SDS011;1338;48.176;11.792;2023-07-29T02:18:57;3.73;;;3.33;;
2656;SDS011;1338;48.176;11.792;2023-07-29T02:21:26;3.43;;;3.13;;
2656;SDS011;1338;48.176;11.792;2023-07-29T02:23:55;3.47;;;3.13;;
2656;SDS011;1338;48.176;11.792;2023-07-29T02:26:27;3.53;;;3.23;;
2656;SDS011;1338;48.176;11.792;2023-07-29T02:28:56;3.57;;;3.30;;
2656;SDS011;1338;48.176;11.792;2023-07-29T02:31:25;3.73;;;3.43;;
2656;SDS011;1338;48.176;11.792;2023-07-29T02:33:53;3.00;;;2.80;;
2656;SDS011;1338;48.176;11.792;2023-07-29T02:36:23;3.77;;;3.40;;
2656;SDS011;1338;48.176;11.792;2023-07-29T02:38:54;3.97;;;3.67;;
2656;SDS011;1338;48.176;11.792;2023-07-29T02:41:23;3.37;;;3.07;;
2656;SDS011;1338;48.176;11.792;2023-07-29T02:43:53;3.60;;;3.30;;
2656;SDS011;1338;48.176;11.792;2023-07-29T02:46:23;3.70;;;3.40;;
2656;SDS011;1338;48.176;11.792;2023-07-29T02:48:51;4.17;;;3.00;;
2656;SDS011;1338;48.176;11.792;2023-07-29T02:51:20;3.80;;;3.50;;
2656;SDS011;1338;48.176;11.792;2023-07-29T02:53:49;3.83;;;3.47;;
2656;SDS011;1338;48.176;11.792;2023-07-29T02:56:17;2.93;;;2.73;;
2656;SDS011;1338;48.176;11.792;2023-07-29T02:58:46;3.20;;;2.90;;
2656;SDS011;1338;48.176;11.792;2023-07-29T03:01:17;3.00;;;2.80;;
2656;SDS011;1338;48.176;11.792;2023-07-29T03:03:45;3.40;;;3.10;;
2656;SDS011;1338;48.176;11.792;2023-07-29T03:06:15;3.93;;;3.63;;
2656;SDS011;1338;48.176;11.792;2023-07-29T03:08:43;3.17;;;2.97;;
2656;SDS011;1338;48.176;11.792;2023-07-29T03:11:13;3.03;;;2.73;;
2656;SDS011;1338;48.176;11.792;2023-07-29T03:13:43;2.80;;;2.60;;
2656;SDS011;1338;48.176;11.792;2023-07-29T03:16:15;3.93;;;2.97;;
2656;SDS011;1338;48.176;11.792;2023-07-29T03:18:53;3.03;;;2.77;;
2656;SDS011;1338;48.176;11.792;2023-07-29T03:21:22;2.73;;;2.53;;
2656;SDS011;1338;48.176;11.792;2023-07-29T03:23:50;3.20;;;2.93;;
2656;SDS011;1338;48.176;11.792;2023-07-29T03:26:19;3.17;;;2.97;;
2656;SDS011;1338;48.176;11.792;2023-07-29T03:28:48;2.93;;;2.60;;
2656;SDS011;1338;48.176;11.792;2023-07-29T03:31:19;3.10;;;2.90;;
2656;SDS011;1338;48.176;11.792;2023-07-29T03:33:48;2.97;;;2.77;;
2656;SDS011;1338;48.176;11.792;2023-07-29T03:36:17;3.53;;;3.23;;
2656;SDS011;1338;48.176;11.792;2023-07-29T03:38:46;3.33;;;3.07;;
2656;SDS011;1338;48.176;11.792;2023-07-29T03:41:16;3.17;;;2.87;;
2656;SDS011;1338;48.176;11.792;2023-07-29T03:43:48;3.00;;;2.80;;
2656;SDS011;1338;48.176;11.792;2023-07-29T03:46:19;3.43;;;3.13;;
2656;SDS011;1338;48.176;11.792;2023-07-29T03:48:49;2.77;;;2.57;;
2656;SDS011;1338;48.176;11.792;2023-07-29T03:51:18;3.17;;;2.77;;
2656;SDS011;1338;48.176;11.792;2023-07-29T03:53:51;2.90;;;2.43;;
2656;SDS011;1338;48.176;11.792;2023-07-29T03:56:21;4.23;;;3.33;;
2656;SDS011;1338;48.176;11.792;2023-07-29T03:58:49;2.90;;;2.70;;
2656;SDS011;1338;48.176;11.792;2023-07-29T04:01:20;3.13;;;2.83;;
2656;SDS011;1338;48.176;11.792;2023-07-29T04:03:50;3.10;;;2.80;;
2656;SDS011;1338;48.176;11.792;2023-07-29T04:06:19;2.80;;;2.60;;
2656;SDS011;1338;48.176;11.792;2023-07-29T04:08:48;2.63;;;2.43;;
2656;SDS011;1338;48.176;11.792;2023-07-29T04:11:17;4.23;;;3.10;;
2656;SDS011;1338;48.176;11.792;2023-07-29T04:13:46;2.90;;;2.70;;
2656;SDS011;1338;48.176;11.792;2023-07-29T04:16:15;3.20;;;2.90;;
2656;SDS011;1338;48.176;11.792;2023-07-29T04:18:47;2.77;;;2.43;;
2656;SDS011;1338;48.176;11.792;2023-07-29T04:21:15;2.63;;;2.43;;
2656;SDS011;1338;48.176;11.792;2023-07-29T04:23:44;2.80;;;2.60;;
2656;SDS011;1338;48.176;11.792;2023-07-29T04:26:13;2.80;;;2.60;;
2656;SDS011;1338;48.176;11.792;2023-07-29T04:28:41;3.70;;;3.23;;
2656;SDS011;1338;48.176;11.792;2023-07-29T04:31:10;4.00;;;3.13;;
2656;SDS011;1338;48.176;11.792;2023-07-29T04:33:39;2.57;;;2.37;;
2656;SDS011;1338;48.176;11.792;2023-07-29T04:36:09;3.00;;;2.77;;
2656;SDS011;1338;48.176;11.792;2023-07-29T04:38:38;3.27;;;3.00;;
2656;SDS011;1338;48.176;11.792;2023-07-29T04:41:07;3.43;;;2.90;;
2656;SDS011;1338;48.176;11.792;2023-07-29T04:43:35;2.70;;;2.50;;
2656;SDS011;1338;48.176;11.792;2023-07-29T04:46:07;3.10;;;2.90;;
2656;SDS011;1338;48.176;11.792;2023-07-29T04:48:36;2.87;;;2.67;;
2656;SDS011;1338;48.176;11.792;2023-07-29T04:51:05;3.33;;;2.90;;
2656;SDS011;1338;48.176;11.792;2023-07-29T04:53:35;2.97;;;2.37;;
2656;SDS011;1338;48.176;11.792;2023-07-29T04:56:05;3.00;;;2.80;;
2656;SDS011;1338;48.176;11.792;2023-07-29T04:58:33;2.80;;;2.60;;
2656;SDS011;1338;48.176;11.792;2023-07-29T05:01:02;3.00;;;2.70;;
2656;SDS011;1338;48.176;11.792;2023-07-29T05:03:31;2.43;;;2.20;;
2656;SDS011;1338;48.176;11.792;2023-07-29T05:06:01;2.57;;;2.37;;
2656;SDS011;1338;48.176;11.792;2023-07-29T05:08:29;3.33;;;3.03;;
2656;SDS011;1338;48.176;11.792;2023-07-29T05:11:00;3.70;;;3.40;;
2656;SDS011;1338;48.176;11.792;2023-07-29T05:13:29;2.83;;;2.47;;
2656;SDS011;1338;48.176;11.792;2023-07-29T05:15:57;2.87;;;2.67;;
2656;SDS011;1338;48.176;11.792;2023-07-29T05:18:26;3.87;;;2.70;;
2656;SDS011;1338;48.176;11.792;2023-07-29T05:20:55;3.00;;;2.80;;
2656;SDS011;1338;48.176;11.792;2023-07-29T05:23:23;2.97;;;2.70;;
2656;SDS011;1338;48.176;11.792;2023-07-29T05:25:52;2.77;;;2.57;;
2656;SDS011;1338;48.176;11.792;2023-07-29T05:28:23;2.90;;;2.70;;
2656;SDS011;1338;48.176;11.792;2023-07-29T05:30:52;3.63;;;2.80;;
2656;SDS011;1338;48.176;11.792;2023-07-29T05:33:21;2.70;;;2.50;;
2656;SDS011;1338;48.176;11.792;2023-07-29T05:35:49;2.60;;;2.40;;
2656;SDS011;1338;48.176;11.792;2023-07-29T05:38:18;2.60;;;2.40;;
2656;SDS011;1338;48.176;11.792;2023-07-29T05:40:47;3.00;;;2.70;;
2656;SDS011;1338;48.176;11.792;2023-07-29T05:43:16;2.70;;;2.50;;
2656;SDS011;1338;48.176;11.792;2023-07-29T05:45:47;2.50;;;2.30;;
2656;SDS011;1338;48.176;11.792;2023-07-29T05:48:16;2.57;;;2.37;;
2656;SDS011;1338;48.176;11.792;2023-07-29T05:50:46;2.73;;;2.53;;
2656;SDS011;1338;48.176;11.792;2023-07-29T05:53:15;2.80;;;2.60;;
2656;SDS011;1338;48.176;11.792;2023-07-29T05:55:44;2.70;;;2.50;;
2656;SDS011;1338;48.176;11.792;2023-07-29T05:58:13;2.60;;;2.40;;
2656;SDS011;1338;48.176;11.792;2023-07-29T06:00:42;2.50;;;2.30;;
2656;SDS011;1338;48.176;11.792;2023-07-29T06:03:15;2.90;;;2.50;;
2656;SDS011;1338;48.176;11.792;2023-07-29T06:05:43;2.57;;;2.37;;
2656;SDS011;1338;48.176;11.792;2023-07-29T06:08:12;2.67;;;2.47;;
2656;SDS011;1338;48.176;11.792;2023-07-29T06:10:41;3.33;;;2.50;;
2656;SDS011;1338;48.176;11.792;2023-07-29T06:13:09;2.80;;;2.60;;
2656;SDS011;1338;48.176;11.792;2023-07-29T06:15:38;2.60;;;2.40;;
2656;SDS011;1338;48.176;11.792;2023-07-29T06:18:07;2.70;;;2.50;;
2656;SDS011;1338;48.176;11.792;2023-07-29T06:20:38;2.77;;;2.47;;
2656;SDS011;1338;48.176;11.792;2023-07-29T06:23:08;2.67;;;2.47;;
2656;SDS011;1338;48.176;11.792;2023-07-29T06:25:37;2.37;;;2.17;;
2656;SDS011;1338;48.176;11.792;2023-07-29T06:28:06;2.33;;;2.10;;
2656;SDS011;1338;48.176;11.792;2023-07-29T06:30:34;2.80;;;2.60;;
2656;SDS011;1338;48.176;11.792;2023-07-29T06:33:03;2.87;;;2.67;;
2656;SDS011;1338;48.176;11.792;2023-07-29T06:35:32;2.67;;;2.40;;
2656;SDS011;1338;48.176;11.792;2023-07-29T06:38:02;3.20;;;2.90;;
2656;SDS011;1338;48.176;11.792;2023-07-29T06:40:31;2.40;;;2.20;;
2656;SDS011;1338;48.176;11.792;2023-07-29T06:43:00;2.60;;;2.40;;
2656;SDS011;1338;48.176;11.792;2023-07-29T06:45:28;3.03;;;2.73;;
2656;SDS011;1338;48.176;11.792;2023-07-29T06:47:57;3.63;;;2.63;;
2656;SDS011;1338;48.176;11.792;2023-07-29T06:50:26;2.63;;;2.43;;
2656;SDS011;1338;48.176;11.792;2023-07-29T06:52:54;2.60;;;2.40;;
2656;SDS011;1338;48.176;11.792;2023-07-29T06:55:24;2.77;;;2.50;;
2656;SDS011;1338;48.176;11.792;2023-07-29T06:57:53;2.53;;;2.33;;
2656;SDS011;1338;48.176;11.792;2023-07-29T07:00:22;2.60;;;2.40;;
2656;SDS011;1338;48.176;11.792;2023-07-29T07:02:50;2.50;;;2.30;;
2656;SDS011;1338;48.176;11.792;2023-07-29T07:05:19;2.83;;;2.63;;
2656;SDS011;1338;48.176;11.792;2023-07-29T07:07:47;2.67;;;2.47;;
2656;SDS011;1338;48.176;11.792;2023-07-29T07:10:16;2.60;;;2.40;;
2656;SDS011;1338;48.176;11.792;2023-07-29T07:12:46;2.60;;;2.40;;
2656;SDS011;1338;48.176;11.792;2023-07-29T07:15:15;3.30;;;2.50;;
2656;SDS011;1338;48.176;11.792;2023-07-29T07:17:44;2.83;;;2.63;;
2656;SDS011;1338;48.176;11.792;2023-07-29T07:20:13;3.30;;;2.77;;
2656;SDS011;1338;48.176;11.792;2023-07-29T07:22:42;2.90;;;2.70;;
2656;SDS011;1338;48.176;11.792;2023-07-29T07:25:10;3.03;;;2.73;;
2656;SDS011;1338;48.176;11.792;2023-07-29T07:27:39;3.50;;;3.20;;
2656;SDS011;1338;48.176;11.792;2023-07-29T07:30:11;2.90;;;2.70;;
2656;SDS011;1338;48.176;11.792;2023-07-29T07:32:40;3.73;;;2.73;;
2656;SDS011;1338;48.176;11.792;2023-07-29T07:35:08;2.77;;;2.57;;
2656;SDS011;1338;48.176;11.792;2023-07-29T07:37:38;3.60;;;3.17;;
2656;SDS011;1338;48.176;11.792;2023-07-29T07:40:08;2.67;;;2.47;;
2656;SDS011;1338;48.176;11.792;2023-07-29T07:42:37;3.07;;;2.87;;
2656;SDS011;1338;48.176;11.792;2023-07-29T07:45:05;3.10;;;2.80;;
2656;SDS011;1338;48.176;11.792;2023-07-29T07:47:35;3.20;;;2.90;;
2656;SDS011;1338;48.176;11.792;2023-07-29T07:50:04;3.20;;;2.80;;
2656;SDS011;1338;48.176;11.792;2023-07-29T07:52:33;2.90;;;2.70;;
2656;SDS011;1338;48.176;11.792;2023-07-29T07:55:02;3.47;;;3.17;;
2656;SDS011;1338;48.176;11.792;2023-07-29T07:57:31;3.10;;;2.80;;
2656;SDS011;1338;48.176;11.792;2023-07-29T08:00:00;4.03;;;3.47;;
2656;SDS011;1338;48.176;11.792;2023-07-29T08:02:39;3.13;;;2.83;;
2656;SDS011;1338;48.176;11.792;2023-07-29T08:05:08;3.30;;;3.00;;
2656;SDS011;1338;48.176;11.792;2023-07-29T08:07:37;3.83;;;2.97;;
2656;SDS011;1338;48.176;11.792;2023-07-29T08:10:06;3.70;;;3.40;;
2656;SDS011;1338;48.176;11.792;2023-07-29T08:12:36;3.20;;;2.90;;
2656;SDS011;1338;48.176;11.792;2023-07-29T08:15:07;3.07;;;2.87;;
2656;SDS011;1338;48.176;11.792;2023-07-29T08:17:36;3.33;;;3.03;;
2656;SDS011;1338;48.176;11.792;2023-07-29T08:20:08;3.20;;;2.90;;
2656;SDS011;1338;48.176;11.792;2023-07-29T08:22:38;3.13;;;2.40;;
2656;SDS011;1338;48.176;11.792;2023-07-29T08:25:08;4.57;;;3.00;;
2656;SDS011;1338;48.176;11.792;2023-07-29T08:27:43;3.20;;;2.90;;
2656;SDS011;1338;48.176;11.792;2023-07-29T08:30:12;3.30;;;3.00;;
2656;SDS011;1338;48.176;11.792;2023-07-29T08:32:42;3.23;;;2.93;;
2656;SDS011;1338;48.176;11.792;2023-07-29T08:35:13;3.63;;;3.33;;
2656;SDS011;1338;48.176;11.792;2023-07-29T08:37:45;3.27;;;2.97;;
2656;SDS011;1338;48.176;11.792;2023-07-29T08:40:14;3.40;;;3.10;;
2656;SDS011;1338;48.176;11.792;2023-07-29T08:42:42;3.50;;;3.20;;
2656;SDS011;1338;48.176;11.792;2023-07-29T08:45:16;3.30;;;3.00;;
2656;SDS011;1338;48.176;11.792;2023-07-29T08:47:45;4.20;;;3.37;;
2656;SDS011;1338;48.176;11.792;2023-07-29T08:50:17;3.73;;;3.43;;
2656;SDS011;1338;48.176;11.792;2023-07-29T08:52:47;3.90;;;3.60;;
2656;SDS011;1338;48.176;11.792;2023-07-29T08:55:18;3.97;;;3.67;;
2656;SDS011;1338;48.176;11.792;2023-07-29T08:57:46;4.67;;;3.30;;
2656;SDS011;1338;48.176;11.792;2023-07-29T09:00:15;3.37;;;3.07;;
2656;SDS011;1338;48.176;11.792;2023-07-29T09:02:47;3.60;;;3.30;;
2656;SDS011;1338;48.176;11.792;2023-07-29T09:05:17;3.67;;;3.37;;
2656;SDS011;1338;48.176;11.792;2023-07-29T09:07:48;3.30;;;2.80;;
2656;SDS011;1338;48.176;11.792;2023-07-29T09:10:21;3.37;;;3.10;;
2656;SDS011;1338;48.176;11.792;2023-07-29T09:12:54;3.13;;;2.93;;
2656;SDS011;1338;48.176;11.792;2023-07-29T09:15:26;3.63;;;3.33;;
2656;SDS011;1338;48.176;11.792;2023-07-29T09:17:56;3.93;;;3.50;;
2656;SDS011;1338;48.176;11.792;2023-07-29T09:20:30;3.80;;;3.50;;
2656;SDS011;1338;48.176;11.792;2023-07-29T09:23:01;3.40;;;3.10;;
2656;SDS011;1338;48.176;11.792;2023-07-29T09:25:30;3.20;;;3.00;;
2656;SDS011;1338;48.176;11.792;2023-07-29T09:28:02;3.63;;;2.90;;
2656;SDS011;1338;48.176;11.792;2023-07-29T09:30:37;3.47;;;3.17;;
2656;SDS011;1338;48.176;11.792;2023-07-29T09:33:07;3.50;;;3.20;;
2656;SDS011;1338;48.176;11.792;2023-07-29T09:35:41;3.20;;;2.90;;
2656;SDS011;1338;48.176;11.792;2023-07-29T09:38:13;3.50;;;3.20;;
2656;SDS011;1338;48.176;11.792;2023-07-29T09:40:43;4.27;;;3.87;;
2656;SDS011;1338;48.176;11.792;2023-07-29T09:43:12;3.43;;;3.23;;
2656;SDS011;1338;48.176;11.792;2023-07-29T09:45:45;4.30;;;3.90;;
2656;SDS011;1338;48.176;11.792;2023-07-29T09:48:19;3.03;;;2.83;;
2656;SDS011;1338;48.176;11.792;2023-07-29T09:50:53;3.17;;;2.90;;
2656;SDS011;1338;48.176;11.792;2023-07-29T09:53:24;4.10;;;3.17;;
2656;SDS011;1338;48.176;11.792;2023-07-29T09:55:53;3.60;;;3.30;;
2656;SDS011;1338;48.176;11.792;2023-07-29T09:58:26;3.73;;;3.43;;
2656;SDS011;1338;48.176;11.792;2023-07-29T10:00:58;3.93;;;3.63;;
2656;SDS011;1338;48.176;11.792;2023-07-29T10:03:28;4.37;;;3.97;;
2656;SDS011;1338;48.176;11.792;2023-07-29T10:12:40;4.50;;;4.10;;
2656;SDS011;1338;48.176;11.792;2023-07-29T10:15:13;4.10;;;3.70;;
2656;SDS011;1338;48.176;11.792;2023-07-29T10:17:42;4.13;;;3.73;;
2656;SDS011;1338;48.176;11.792;2023-07-29T10:20:29;3.80;;;3.50;;
2656;SDS011;1338;48.176;11.792;2023-07-29T10:23:01;4.20;;;3.87;;
2656;SDS011;1338;48.176;11.792;2023-07-29T10:25:37;3.67;;;3.37;;
2656;SDS011;1338;48.176;11.792;2023-07-29T10:31:03;3.70;;;3.40;;
2656;SDS011;1338;48.176;11.792;2023-07-29T10:33:36;3.83;;;3.50;;
2656;SDS011;1338;48.176;11.792;2023-07-29T10:36:07;3.70;;;3.40;;
2656;SDS011;1338;48.176;11.792;2023-07-29T10:38:40;3.73;;;3.40;;
2656;SDS011;1338;48.176;11.792;2023-07-29T10:41:12;3.63;;;3.33;;
2656;SDS011;1338;48.176;11.792;2023-07-29T10:43:43;3.83;;;3.53;;
2656;SDS011;1338;48.176;11.792;2023-07-29T10:46:16;4.97;;;3.70;;
2656;SDS011;1338;48.176;11.792;2023-07-29T10:48:55;5.33;;;4.10;;
2656;SDS011;1338;48.176;11.792;2023-07-29T10:51:28;4.10;;;3.70;;
2656;SDS011;1338;48.176;11.792;2023-07-29T10:54:00;3.80;;;3.50;;
2656;SDS011;1338;48.176;11.792;2023-07-29T10:56:30;3.60;;;3.30;;
2656;SDS011;1338;48.176;11.792;2023-07-29T11:02:11;3.50;;;3.20;;
2656;SDS011;1338;48.176;11.792;2023-07-29T11:04:47;3.97;;;3.67;;
2656;SDS011;1338;48.176;11.792;2023-07-29T11:07:18;3.80;;;3.53;;
2656;SDS011;1338;48.176;11.792;2023-07-29T11:10:00;3.60;;;3.30;;
2656;SDS011;1338;48.176;11.792;2023-07-29T11:15:21;4.10;;;3.80;;
2656;SDS011;1338;48.176;11.792;2023-07-29T11:17:51;4.07;;;3.77;;
2656;SDS011;1338;48.176;11.792;2023-07-29T11:20:21;4.60;;;4.20;;
2656;SDS011;1338;48.176;11.792;2023-07-29T11:22:54;4.10;;;3.70;;
2656;SDS011;1338;48.176;11.792;2023-07-29T11:25:23;4.20;;;3.90;;
2656;SDS011;1338;48.176;11.792;2023-07-29T11:27:52;3.87;;;3.57;;
2656;SDS011;1338;48.176;11.792;2023-07-29T11:30:24;3.27;;;3.00;;
2656;SDS011;1338;48.176;11.792;2023-07-29T11:32:56;2.90;;;2.70;;
2656;SDS011;1338;48.176;11.792;2023-07-29T11:35:26;2.70;;;2.50;;
2656;SDS011;1338;48.176;11.792;2023-07-29T11:37:54;2.80;;;2.60;;
2656;SDS011;1338;48.176;11.792;2023-07-29T11:40:24;2.27;;;2.17;;
2656;SDS011;1338;48.176;11.792;2023-07-29T11:42:52;3.20;;;2.97;;
2656;SDS011;1338;48.176;11.792;2023-07-29T11:45:24;2.90;;;2.67;;
2656;SDS011;1338;48.176;11.792;2023-07-29T11:48:12;2.67;;;2.47;;
2656;SDS011;1338;48.176;11.792;2023-07-29T11:50:40;2.70;;;2.50;;
2656;SDS011;1338;48.176;11.792;2023-07-29T11:53:09;3.07;;;2.77;;
2656;SDS011;1338;48.176;11.792;2023-07-29T11:55:43;2.90;;;2.70;;
2656;SDS011;1338;48.176;11.792;2023-07-29T11:58:11;3.50;;;3.20;;
2656;SDS011;1338;48.176;11.792;2023-07-29T12:00:41;3.17;;;2.93;;
2656;SDS011;1338;48.176;11.792;2023-07-29T12:03:12;3.20;;;2.90;;
2656;SDS011;1338;48.176;11.792;2023-07-29T12:05:42;3.13;;;2.83;;
2656;SDS011;1338;48.176;11.792;2023-07-29T12:08:11;3.70;;;3.40;;
2656;SDS011;1338;48.176;11.792;2023-07-29T12:10:40;3.40;;;3.07;;
2656;SDS011;1338;48.176;11.792;2023-07-29T12:13:23;3.53;;;3.27;;
2656;SDS011;1338;48.176;11.792;2023-07-29T12:15:53;3.37;;;3.07;;
2656;SDS011;1338;48.176;11.792;2023-07-29T12:18:29;3.70;;;3.40;;
2656;SDS011;1338;48.176;11.792;2023-07-29T12:20:58;3.73;;;3.43;;
2656;SDS011;1338;48.176;11.792;2023-07-29T12:23:27;3.30;;;3.10;;
2656;SDS011;1338;48.176;11.792;2023-07-29T12:25:56;3.03;;;2.83;;
2656;SDS011;1338;48.176;11.792;2023-07-29T12:28:25;3.20;;;3.00;;
2656;SDS011;1338;48.176;11.792;2023-07-29T12:30:56;3.20;;;2.93;;
2656;SDS011;1338;48.176;11.792;2023-07-29T12:33:29;3.43;;;3.23;;
2656;SDS011;1338;48.176;11.792;2023-07-29T12:35:58;3.57;;;3.27;;
2656;SDS011;1338;48.176;11.792;2023-07-29T12:38:26;4.00;;;3.70;;
2656;SDS011;1338;48.176;11.792;2023-07-29T12:40:55;3.37;;;3.13;;
2656;SDS011;1338;48.176;11.792;2023-07-29T12:43:24;3.20;;;3.00;;
2656;SDS011;1338;48.176;11.792;2023-07-29T12:45:53;3.47;;;3.17;;
2656;SDS011;1338;48.176;11.792;2023-07-29T12:48:23;4.03;;;3.73;;
2656;SDS011;1338;48.176;11.792;2023-07-29T12:50:51;3.27;;;2.97;;
2656;SDS011;1338;48.176;11.792;2023-07-29T12:53:19;3.47;;;3.17;;
2656;SDS011;1338;48.176;11.792;2023-07-29T12:55:48;3.80;;;3.57;;
2656;SDS011;1338;48.176;11.792;2023-07-29T12:58:16;3.40;;;3.20;;
2656;SDS011;1338;48.176;11.792;2023-07-29T13:00:45;4.10;;;3.80;;
2656;SDS011;1338;48.176;11.792;2023-07-29T13:03:13;3.87;;;3.57;;
2656;SDS011;1338;48.176;11.792;2023-07-29T13:05:44;3.80;;;3.50;;
2656;SDS011;1338;48.176;11.792;2023-07-29T13:08:14;3.63;;;3.33;;
2656;SDS011;1338;48.176;11.792;2023-07-29T13:10:43;4.40;;;4.00;;
2656;SDS011;1338;48.176;11.792;2023-07-29T13:13:11;3.63;;;3.17;;
2656;SDS011;1338;48.176;11.792;2023-07-29T13:15:39;4.43;;;3.90;;
2656;SDS011;1338;48.176;11.792;2023-07-29T13:18:08;4.20;;;3.90;;
2656;SDS011;1338;48.176;11.792;2023-07-29T13:20:37;4.30;;;3.90;;
2656;SDS011;1338;48.176;11.792;2023-07-29T13:23:07;4.20;;;3.80;;
2656;SDS011;1338;48.176;11.792;2023-07-29T13:25:36;4.37;;;3.60;;
2656;SDS011;1338;48.176;11.792;2023-07-29T13:28:04;5.60;;;3.60;;
2656;SDS011;1338;48.176;11.792;2023-07-29T13:30:33;5.00;;;4.00;;
2656;SDS011;1338;48.176;11.792;2023-07-29T13:33:03;4.30;;;3.50;;
2656;SDS011;1338;48.176;11.792;2023-07-29T13:35:32;4.20;;;3.80;;
2656;SDS011;1338;48.176;11.792;2023-07-29T13:38:00;3.37;;;3.07;;
2656;SDS011;1338;48.176;11.792;2023-07-29T13:40:31;3.83;;;3.53;;
2656;SDS011;1338;48.176;11.792;2023-07-29T13:43:03;4.47;;;4.17;;
2656;SDS011;1338;48.176;11.792;2023-07-29T13:45:33;3.70;;;3.40;;
2656;SDS011;1338;48.176;11.792;2023-07-29T13:48:02;3.20;;;3.00;;
2656;SDS011;1338;48.176;11.792;2023-07-29T13:50:33;3.80;;;3.50;;
2656;SDS011;1338;48.176;11.792;2023-07-29T13:53:02;3.33;;;3.13;;
2656;SDS011;1338;48.176;11.792;2023-07-29T13:55:32;4.27;;;3.87;;
2656;SDS011;1338;48.176;11.792;2023-07-29T13:58:01;4.03;;;3.67;;
2656;SDS011;1338;48.176;11.792;2023-07-29T14:00:30;3.97;;;3.60;;
2656;SDS011;1338;48.176;11.792;2023-07-29T14:02:58;4.50;;;4.10;;
2656;SDS011;1338;48.176;11.792;2023-07-29T14:05:27;4.20;;;3.90;;
2656;SDS011;1338;48.176;11.792;2023-07-29T14:07:56;4.00;;;3.70;;
2656;SDS011;1338;48.176;11.792;2023-07-29T14:10:28;3.83;;;3.53;;
2656;SDS011;1338;48.176;11.792;2023-07-29T14:12:58;4.30;;;3.90;;
2656;SDS011;1338;48.176;11.792;2023-07-29T14:15:27;4.00;;;3.70;;
2656;SDS011;1338;48.176;11.792;2023-07-29T14:17:59;4.13;;;3.83;;
2656;SDS011;1338;48.176;11.792;2023-07-29T14:20:29;4.03;;;3.73;;
2656;SDS011;1338;48.176;11.792;2023-07-29T14:22:59;4.07;;;3.73;;
2656;SDS011;1338;48.176;11.792;2023-07-29T14:25:28;4.20;;;3.80;;
2656;SDS011;1338;48.176;11.792;2023-07-29T14:28:01;3.90;;;3.50;;
2656;SDS011;1338;48.176;11.792;2023-07-29T14:30:30;4.00;;;3.70;;
2656;SDS011;1338;48.176;11.792;2023-07-29T14:32:58;4.00;;;3.70;;
2656;SDS011;1338;48.176;11.792;2023-07-29T14:35:27;3.80;;;3.50;;
2656;SDS011;1338;48.176;11.792;2023-07-29T14:37:56;4.23;;;3.83;;
2656;SDS011;1338;48.176;11.792;2023-07-29T14:40:25;4.50;;;4.10;;
2656;SDS011;1338;48.176;11.792;2023-07-29T14:42:54;4.53;;;4.20;;
2656;SDS011;1338;48.176;11.792;2023-07-29T14:45:25;3.90;;;3.60;;
2656;SDS011;1338;48.176;11.792;2023-07-29T14:47:54;4.50;;;4.10;;
2656;SDS011;1338;48.176;11.792;2023-07-29T14:50:23;4.30;;;3.90;;
2656;SDS011;1338;48.176;11.792;2023-07-29T14:52:51;4.13;;;3.73;;
2656;SDS011;1338;48.176;11.792;2023-07-29T14:55:20;5.03;;;4.30;;
2656;SDS011;1338;48.176;11.792;2023-07-29T14:57:48;4.80;;;4.27;;
2656;SDS011;1338;48.176;11.792;2023-07-29T15:00:17;4.43;;;4.00;;
2656;SDS011;1338;48.176;11.792;2023-07-29T15:02:48;4.50;;;4.10;;
2656;SDS011;1338;48.176;11.792;2023-07-29T15:05:17;4.97;;;4.47;;
2656;SDS011;1338;48.176;11.792;2023-07-29T15:07:45;5.03;;;4.63;;
2656;SDS011;1338;48.176;11.792;2023-07-29T15:10:14;4.27;;;3.97;;
2656;SDS011;1338;48.176;11.792;2023-07-29T15:12:43;4.37;;;4.00;;
2656;SDS011;1338;48.176;11.792;2023-07-29T15:15:12;4.63;;;4.23;;
2656;SDS011;1338;48.176;11.792;2023-07-29T15:17:41;4.03;;;3.73;;
2656;SDS011;1338;48.176;11.792;2023-07-29T15:20:12;3.83;;;3.53;;
2656;SDS011;1338;48.176;11.792;2023-07-29T15:22:41;3.57;;;3.37;;
2656;SDS011;1338;48.176;11.792;2023-07-29T15:25:09;3.90;;;3.60;;
2656;SDS011;1338;48.176;11.792;2023-07-29T15:27:38;3.90;;;3.60;;
2656;SDS011;1338;48.176;11.792;2023-07-29T15:30:07;4.27;;;3.87;;
2656;SDS011;1338;48.176;11.792;2023-07-29T15:32:38;4.43;;;4.13;;